sensor_id;sensor_type;location;lat;lon;timestamp;pressure;altitude;pressure_sealevel;temperature;humidity
77871;BME280;67067;46.850;7.578;2023-04-03T00:00:29;95549.22;;;5.62;55.16
77871;BME280;67067;46.850;7.578;2023-04-03T00:01:31;95552.06;;;5.61;55.44
77871;BME280;67067;46.850;7.578;2023-04-03T00:02:35;95547.59;;;5.61;55.36
77871;BME280;67067;46.850;7.578;2023-04-03T00:03:37;95539.72;;;5.61;55.64
77871;BME280;67067;46.850;7.578;2023-04-03T00:04:41;95539.19;;;5.45;55.81
77871;BME280;67067;46.850;7.578;2023-04-03T00:05:43;95547.84;;;5.59;55.35
77871;BME280;67067;46.850;7.578;2023-04-03T00:06:45;95540.59;;;5.48;55.83
77871;BME280;67067;46.850;7.578;2023-04-03T00:07:47;95537.53;;;5.58;55.60
77871;BME280;67067;46.850;7.578;2023-04-03T00:08:49;95548.03;;;5.58;55.29
77871;BME280;67067;46.850;7.578;2023-04-03T00:09:50;95538.34;;;5.58;55.11
77871;BME280;67067;46.850;7.578;2023-04-03T00:10:52;95545.84;;;5.48;55.36
77871;BME280;67067;46.850;7.578;2023-04-03T00:11:56;95539.56;;;5.56;55.43
77871;BME280;67067;46.850;7.578;2023-04-03T00:12:58;95539.94;;;5.59;55.27
77871;BME280;67067;46.850;7.578;2023-04-03T00:13:59;95545.03;;;5.48;55.32
77871;BME280;67067;46.850;7.578;2023-04-03T00:15:03;95539.19;;;5.52;55.50
77871;BME280;67067;46.850;7.578;2023-04-03T00:16:07;95542.00;;;5.57;55.51
77871;BME280;67067;46.850;7.578;2023-04-03T00:17:09;95545.03;;;5.54;55.38
77871;BME280;67067;46.850;7.578;2023-04-03T00:18:10;95539.81;;;5.41;55.89
77871;BME280;67067;46.850;7.578;2023-04-03T00:19:12;95540.78;;;5.47;55.60
77871;BME280;67067;46.850;7.578;2023-04-03T00:20:14;95546.47;;;5.50;55.71
77871;BME280;67067;46.850;7.578;2023-04-03T00:21:16;95545.06;;;5.41;55.84
77871;BME280;67067;46.850;7.578;2023-04-03T00:22:17;95545.03;;;5.48;55.49
77871;BME280;67067;46.850;7.578;2023-04-03T00:23:19;95545.25;;;5.46;55.41
77871;BME280;67067;46.850;7.578;2023-04-03T00:24:21;95538.44;;;5.32;55.73
77871;BME280;67067;46.850;7.578;2023-04-03T00:25:22;95554.03;;;5.26;55.49
77871;BME280;67067;46.850;7.578;2023-04-03T00:26:29;95542.50;;;5.34;55.07
77871;BME280;67067;46.850;7.578;2023-04-03T00:27:30;95545.38;;;5.19;55.16
77871;BME280;67067;46.850;7.578;2023-04-03T00:28:32;95546.31;;;5.32;54.57
77871;BME280;67067;46.850;7.578;2023-04-03T00:29:34;95540.56;;;5.09;54.38
77871;BME280;67067;46.850;7.578;2023-04-03T00:30:36;95536.63;;;4.93;54.61
77871;BME280;67067;46.850;7.578;2023-04-03T00:31:39;95539.97;;;5.07;54.70
77871;BME280;67067;46.850;7.578;2023-04-03T00:32:43;95541.00;;;5.06;54.46
77871;BME280;67067;46.850;7.578;2023-04-03T00:33:47;95537.41;;;5.00;54.72
77871;BME280;67067;46.850;7.578;2023-04-03T00:34:54;95537.41;;;5.00;54.62
77871;BME280;67067;46.850;7.578;2023-04-03T00:35:56;95539.19;;;5.00;54.71
77871;BME280;67067;46.850;7.578;2023-04-03T00:36:57;95533.81;;;4.88;55.27
77871;BME280;67067;46.850;7.578;2023-04-03T00:37:59;95538.41;;;4.99;54.87
77871;BME280;67067;46.850;7.578;2023-04-03T00:39:01;95538.19;;;5.01;54.74
77871;BME280;67067;46.850;7.578;2023-04-03T00:40:04;95531.13;;;5.01;54.89
77871;BME280;67067;46.850;7.578;2023-04-03T00:41:06;95528.09;;;5.05;55.04
77871;BME280;67067;46.850;7.578;2023-04-03T00:42:08;95530.13;;;5.03;54.86
77871;BME280;67067;46.850;7.578;2023-04-03T00:43:14;95527.13;;;4.92;54.88
77871;BME280;67067;46.850;7.578;2023-04-03T00:44:20;95530.53;;;4.99;54.60
77871;BME280;67067;46.850;7.578;2023-04-03T00:45:27;95526.09;;;5.00;54.68
77871;BME280;67067;46.850;7.578;2023-04-03T00:46:32;95526.09;;;5.00;54.48
77871;BME280;67067;46.850;7.578;2023-04-03T00:47:35;95526.97;;;4.87;55.19
77871;BME280;67067;46.850;7.578;2023-04-03T00:48:43;95515.22;;;4.96;54.88
77871;BME280;67067;46.850;7.578;2023-04-03T00:49:46;95515.59;;;5.00;54.97
77871;BME280;67067;46.850;7.578;2023-04-03T00:50:48;95515.66;;;4.86;55.22
77871;BME280;67067;46.850;7.578;2023-04-03T00:51:53;95520.03;;;4.99;55.23
77871;BME280;67067;46.850;7.578;2023-04-03T00:52:56;95515.59;;;5.00;55.27
77871;BME280;67067;46.850;7.578;2023-04-03T00:54:03;95520.63;;;5.01;55.01
77871;BME280;67067;46.850;7.578;2023-04-03T00:55:09;95520.63;;;5.01;55.04
77871;BME280;67067;46.850;7.578;2023-04-03T00:56:13;95517.00;;;5.03;55.37
77871;BME280;67067;46.850;7.578;2023-04-03T00:57:17;95520.41;;;5.03;55.20
77871;BME280;67067;46.850;7.578;2023-04-03T00:58:20;95523.03;;;5.03;55.46
77871;BME280;67067;46.850;7.578;2023-04-03T00:59:27;95519.22;;;4.99;55.17
77871;BME280;67067;46.850;7.578;2023-04-03T01:00:31;95515.22;;;4.96;55.60
77871;BME280;67067;46.850;7.578;2023-04-03T01:01:34;95517.25;;;4.94;55.57
77871;BME280;67067;46.850;7.578;2023-04-03T01:02:36;95512.00;;;4.94;55.52
77871;BME280;67067;46.850;7.578;2023-04-03T01:03:39;95517.66;;;4.91;54.93
77871;BME280;67067;46.850;7.578;2023-04-03T01:04:43;95511.63;;;4.84;55.00
77871;BME280;67067;46.850;7.578;2023-04-03T01:05:45;95522.53;;;4.81;54.89
77871;BME280;67067;46.850;7.578;2023-04-03T01:06:46;95517.31;;;4.67;54.95
77871;BME280;67067;46.850;7.578;2023-04-03T01:07:51;95510.88;;;4.77;54.91
77871;BME280;67067;46.850;7.578;2023-04-03T01:08:54;95521.34;;;4.77;54.67
77871;BME280;67067;46.850;7.578;2023-04-03T01:09:59;95516.69;;;4.79;54.47
77871;BME280;67067;46.850;7.578;2023-04-03T01:11:02;95520.72;;;4.75;54.55
77871;BME280;67067;46.850;7.578;2023-04-03T01:12:19;95515.72;;;4.66;54.74
77871;BME280;67067;46.850;7.578;2023-04-03T01:13:25;95524.75;;;4.77;54.52
77871;BME280;67067;46.850;7.578;2023-04-03T01:14:27;95517.72;;;4.78;54.62
77871;BME280;67067;46.850;7.578;2023-04-03T01:15:29;95509.28;;;4.62;55.28
77871;BME280;67067;46.850;7.578;2023-04-03T01:16:36;95513.47;;;4.77;54.85
77871;BME280;67067;46.850;7.578;2023-04-03T01:18:40;95517.09;;;4.76;54.76
77871;BME280;67067;46.850;7.578;2023-04-03T01:19:48;95512.47;;;4.78;54.72
77871;BME280;67067;46.850;7.578;2023-04-03T01:21:17;95509.84;;;4.78;54.62
77871;BME280;67067;46.850;7.578;2023-04-03T01:22:30;95508.84;;;4.79;54.77
77871;BME280;67067;46.850;7.578;2023-04-03T01:23:48;95512.25;;;4.79;54.44
77871;BME280;67067;46.850;7.578;2023-04-03T01:24:56;95510.81;;;4.83;54.41
77871;BME280;67067;46.850;7.578;2023-04-03T01:25:58;95506.81;;;4.81;54.83
77871;BME280;67067;46.850;7.578;2023-04-03T01:27:01;95507.00;;;4.79;54.62
77871;BME280;67067;46.850;7.578;2023-04-03T01:28:15;95502.56;;;4.80;54.69
77871;BME280;67067;46.850;7.578;2023-04-03T01:29:17;95506.00;;;4.80;54.84
77871;BME280;67067;46.850;7.578;2023-04-03T01:30:20;95511.66;;;4.70;55.02
77871;BME280;67067;46.850;7.578;2023-04-03T01:31:26;95507.81;;;4.80;54.93
77871;BME280;67067;46.850;7.578;2023-04-03T01:32:30;95511.63;;;4.84;54.85
77871;BME280;67067;46.850;7.578;2023-04-03T01:33:32;95513.69;;;4.75;55.00
77871;BME280;67067;46.850;7.578;2023-04-03T01:34:34;95517.47;;;4.86;54.89
77871;BME280;67067;46.850;7.578;2023-04-03T01:35:35;95514.03;;;4.92;54.98
77871;BME280;67067;46.850;7.578;2023-04-03T01:36:37;95512.06;;;4.81;54.94
77871;BME280;67067;46.850;7.578;2023-04-03T01:37:39;95512.41;;;4.91;55.00
77871;BME280;67067;46.850;7.578;2023-04-03T01:38:41;95514.63;;;4.94;54.97
77871;BME280;67067;46.850;7.578;2023-04-03T01:39:45;95508.78;;;4.85;55.12
77871;BME280;67067;46.850;7.578;2023-04-03T01:40:47;95510.38;;;4.93;54.89
77871;BME280;67067;46.850;7.578;2023-04-03T01:41:49;95513.00;;;4.93;55.08
77871;BME280;67067;46.850;7.578;2023-04-03T01:43:03;95513.19;;;4.92;55.22
77871;BME280;67067;46.850;7.578;2023-04-03T01:44:04;95509.56;;;4.93;55.07
77871;BME280;67067;46.850;7.578;2023-04-03T01:45:09;95507.97;;;4.92;55.27
77871;BME280;67067;46.850;7.578;2023-04-03T01:46:11;95510.38;;;4.93;55.22
77871;BME280;67067;46.850;7.578;2023-04-03T01:47:12;95519.69;;;4.82;55.48
77871;BME280;67067;46.850;7.578;2023-04-03T01:48:16;95516.41;;;4.94;55.69
77871;BME280;67067;46.850;7.578;2023-04-03T01:49:18;95514.38;;;5.03;55.11
77871;BME280;67067;46.850;7.578;2023-04-03T01:50:19;95514.03;;;4.92;55.40
77871;BME280;67067;46.850;7.578;2023-04-03T01:51:22;95511.94;;;5.01;55.30
77871;BME280;67067;46.850;7.578;2023-04-03T01:52:23;95506.50;;;5.03;55.10
77871;BME280;67067;46.850;7.578;2023-04-03T01:53:25;95513.38;;;4.97;55.15
77871;BME280;67067;46.850;7.578;2023-04-03T01:54:27;95509.38;;;4.94;55.15
77871;BME280;67067;46.850;7.578;2023-04-03T01:55:29;95506.22;;;4.79;55.63
77871;BME280;67067;46.850;7.578;2023-04-03T01:56:31;95508.19;;;4.90;55.31
77871;BME280;67067;46.850;7.578;2023-04-03T01:57:32;95516.28;;;4.82;55.71
77871;BME280;67067;46.850;7.578;2023-04-03T01:58:34;95511.41;;;4.92;55.39
77871;BME280;67067;46.850;7.578;2023-04-03T01:59:36;95505.50;;;4.97;55.27
77871;BME280;67067;46.850;7.578;2023-04-03T02:00:38;95513.25;;;4.85;55.78
77871;BME280;67067;46.850;7.578;2023-04-03T02:01:39;95512.16;;;4.99;55.47
77871;BME280;67067;46.850;7.578;2023-04-03T02:02:42;95510.94;;;5.02;55.35
77871;BME280;67067;46.850;7.578;2023-04-03T02:03:46;95511.34;;;5.06;55.36
77871;BME280;67067;46.850;7.578;2023-04-03T02:04:47;95513.38;;;4.97;55.68
77871;BME280;67067;46.850;7.578;2023-04-03T02:05:49;95514.75;;;5.06;55.38
77871;BME280;67067;46.850;7.578;2023-04-03T02:06:53;95511.69;;;5.09;55.23
77871;BME280;67067;46.850;7.578;2023-04-03T02:07:55;95523.63;;;5.12;55.19
77871;BME280;67067;46.850;7.578;2023-04-03T02:08:57;95509.06;;;5.16;55.30
77871;BME280;67067;46.850;7.578;2023-04-03T02:10:04;95511.25;;;5.19;55.33
77871;BME280;67067;46.850;7.578;2023-04-03T02:11:06;95514.91;;;5.18;55.21
77871;BME280;67067;46.850;7.578;2023-04-03T02:12:08;95517.59;;;5.05;55.77
77871;BME280;67067;46.850;7.578;2023-04-03T02:13:09;95513.88;;;5.19;55.20
77871;BME280;67067;46.850;7.578;2023-04-03T02:14:11;95519.72;;;5.21;55.29
77871;BME280;67067;46.850;7.578;2023-04-03T02:15:13;95509.22;;;5.21;55.15
77871;BME280;67067;46.850;7.578;2023-04-03T02:16:15;95511.66;;;5.23;55.00
77871;BME280;67067;46.850;7.578;2023-04-03T02:17:17;95512.84;;;5.27;55.21
77871;BME280;67067;46.850;7.578;2023-04-03T02:18:19;95510.00;;;5.28;55.14
77871;BME280;67067;46.850;7.578;2023-04-03T02:19:26;95512.19;;;5.32;54.83
77871;BME280;67067;46.850;7.578;2023-04-03T02:20:28;95511.19;;;5.33;54.94
77871;BME280;67067;46.850;7.578;2023-04-03T02:21:29;95508.78;;;5.31;55.00
77871;BME280;67067;46.850;7.578;2023-04-03T02:22:34;95507.53;;;5.34;54.78
77871;BME280;67067;46.850;7.578;2023-04-03T02:23:36;95513.69;;;5.21;54.86
77871;BME280;67067;46.850;7.578;2023-04-03T02:24:38;95516.66;;;5.31;54.91
77871;BME280;67067;46.850;7.578;2023-04-03T02:25:41;95513.22;;;5.30;54.56
77871;BME280;67067;46.850;7.578;2023-04-03T02:26:43;95510.66;;;5.17;54.80
77871;BME280;67067;46.850;7.578;2023-04-03T02:27:45;95515.47;;;5.27;54.90
77871;BME280;67067;46.850;7.578;2023-04-03T02:28:47;95513.88;;;5.26;54.62
77871;BME280;67067;46.850;7.578;2023-04-03T02:29:49;95514.47;;;5.28;54.69
77871;BME280;67067;46.850;7.578;2023-04-03T02:30:51;95506.16;;;5.31;54.88
77871;BME280;67067;46.850;7.578;2023-04-03T02:31:53;95509.47;;;5.20;54.90
77871;BME280;67067;46.850;7.578;2023-04-03T02:32:56;95508.19;;;5.29;54.63
77871;BME280;67067;46.850;7.578;2023-04-03T02:33:59;95508.63;;;5.26;54.66
77871;BME280;67067;46.850;7.578;2023-04-03T02:35:01;95508.81;;;5.24;54.44
77871;BME280;67067;46.850;7.578;2023-04-03T02:36:03;95513.53;;;5.09;54.93
77871;BME280;67067;46.850;7.578;2023-04-03T02:37:06;95508.63;;;5.19;54.66
77871;BME280;67067;46.850;7.578;2023-04-03T02:38:08;95510.09;;;5.08;54.91
77871;BME280;67067;46.850;7.578;2023-04-03T02:39:09;95505.41;;;5.17;54.88
77871;BME280;67067;46.850;7.578;2023-04-03T02:40:11;95510.47;;;5.19;54.76
77871;BME280;67067;46.850;7.578;2023-04-03T02:41:13;95506.69;;;5.01;55.04
77871;BME280;67067;46.850;7.578;2023-04-03T02:42:17;95509.91;;;5.10;54.88
77871;BME280;67067;46.850;7.578;2023-04-03T02:43:19;95501.84;;;5.11;54.88
77871;BME280;67067;46.850;7.578;2023-04-03T02:44:21;95505.84;;;5.14;55.03
77871;BME280;67067;46.850;7.578;2023-04-03T02:45:26;95508.72;;;5.06;54.85
77871;BME280;67067;46.850;7.578;2023-04-03T02:46:28;95508.28;;;5.09;54.65
77871;BME280;67067;46.850;7.578;2023-04-03T02:47:32;95504.47;;;5.05;55.02
77871;BME280;67067;46.850;7.578;2023-04-03T02:48:36;95507.72;;;5.00;55.15
77871;BME280;67067;46.850;7.578;2023-04-03T02:49:38;95505.09;;;5.00;55.12
77871;BME280;67067;46.850;7.578;2023-04-03T02:50:40;95502.88;;;5.04;55.49
77871;BME280;67067;46.850;7.578;2023-04-03T02:51:41;95497.09;;;4.88;55.86
77871;BME280;67067;46.850;7.578;2023-04-03T02:52:44;95501.47;;;5.01;55.29
77871;BME280;67067;46.850;7.578;2023-04-03T02:53:46;95498.63;;;5.03;55.36
77871;BME280;67067;46.850;7.578;2023-04-03T02:54:53;95503.28;;;5.00;55.56
77871;BME280;67067;46.850;7.578;2023-04-03T02:55:54;95501.91;;;4.91;55.54
77871;BME280;67067;46.850;7.578;2023-04-03T02:56:57;95497.81;;;5.02;55.41
77871;BME280;67067;46.850;7.578;2023-04-03T02:57:59;95498.00;;;5.07;55.29
77871;BME280;67067;46.850;7.578;2023-04-03T02:59:01;95496.84;;;4.96;55.54
77871;BME280;67067;46.850;7.578;2023-04-03T03:00:03;95498.59;;;5.09;55.31
77871;BME280;67067;46.850;7.578;2023-04-03T03:01:05;95502.19;;;5.15;55.38
77871;BME280;67067;46.850;7.578;2023-04-03T03:02:08;95505.66;;;5.15;55.17
77871;BME280;67067;46.850;7.578;2023-04-03T03:03:12;95498.78;;;5.14;55.04
77871;BME280;67067;46.850;7.578;2023-04-03T03:04:15;95500.41;;;5.15;55.27
77871;BME280;67067;46.850;7.578;2023-04-03T03:05:17;95501.59;;;5.13;55.42
77871;BME280;67067;46.850;7.578;2023-04-03T03:06:19;95502.19;;;5.15;55.38
77871;BME280;67067;46.850;7.578;2023-04-03T03:07:21;95504.31;;;4.99;55.53
77871;BME280;67067;46.850;7.578;2023-04-03T03:08:22;95518.38;;;5.12;55.42
77871;BME280;67067;46.850;7.578;2023-04-03T03:09:27;95514.72;;;5.13;55.46
77871;BME280;67067;46.850;7.578;2023-04-03T03:10:28;95508.28;;;5.15;55.42
77871;BME280;67067;46.850;7.578;2023-04-03T03:11:31;95510.25;;;5.20;55.43
77871;BME280;67067;46.850;7.578;2023-04-03T03:12:32;95507.44;;;5.22;55.45
77871;BME280;67067;46.850;7.578;2023-04-03T03:13:35;95509.22;;;5.21;55.30
77871;BME280;67067;46.850;7.578;2023-04-03T03:14:39;95504.16;;;5.26;55.10
77871;BME280;67067;46.850;7.578;2023-04-03T03:15:42;95505.41;;;5.24;55.12
77871;BME280;67067;46.850;7.578;2023-04-03T03:16:44;95518.16;;;5.13;55.53
77871;BME280;67067;46.850;7.578;2023-04-03T03:17:46;95514.47;;;5.28;55.22
77871;BME280;67067;46.850;7.578;2023-04-03T03:18:47;95507.97;;;5.30;55.19
77871;BME280;67067;46.850;7.578;2023-04-03T03:19:49;95506.59;;;5.21;55.20
77871;BME280;67067;46.850;7.578;2023-04-03T03:20:55;95507.97;;;5.30;54.86
77871;BME280;67067;46.850;7.578;2023-04-03T03:21:59;95505.16;;;5.25;54.88
77871;BME280;67067;46.850;7.578;2023-04-03T03:23:01;95505.75;;;5.27;54.73
77871;BME280;67067;46.850;7.578;2023-04-03T03:24:03;95511.00;;;5.27;54.63
77871;BME280;67067;46.850;7.578;2023-04-03T03:25:06;95510.22;;;5.27;54.79
77871;BME280;67067;46.850;7.578;2023-04-03T03:26:10;95510.41;;;5.25;54.72
77871;BME280;67067;46.850;7.578;2023-04-03T03:27:12;95509.03;;;5.23;54.70
77871;BME280;67067;46.850;7.578;2023-04-03T03:28:13;95515.16;;;5.10;55.20
77871;BME280;67067;46.850;7.578;2023-04-03T03:29:16;95509.47;;;5.20;55.01
77871;BME280;67067;46.850;7.578;2023-04-03T03:30:18;95508.81;;;5.24;54.68
77871;BME280;67067;46.850;7.578;2023-04-03T03:31:20;95509.41;;;5.26;54.79
77871;BME280;67067;46.850;7.578;2023-04-03T03:32:22;95503.72;;;5.29;54.67
77871;BME280;67067;46.850;7.578;2023-04-03T03:33:24;95502.97;;;5.22;55.03
77871;BME280;67067;46.850;7.578;2023-04-03T03:34:26;95499.75;;;5.20;55.26
77871;BME280;67067;46.850;7.578;2023-04-03T03:35:28;95506.75;;;5.33;54.83
77871;BME280;67067;46.850;7.578;2023-04-03T03:36:29;95508.81;;;5.24;55.11
77871;BME280;67067;46.850;7.578;2023-04-03T03:37:32;95501.09;;;5.36;54.84
77871;BME280;67067;46.850;7.578;2023-04-03T03:38:33;95502.53;;;5.32;54.83
77871;BME280;67067;46.850;7.578;2023-04-03T03:39:36;95502.84;;;5.42;54.81
77871;BME280;67067;46.850;7.578;2023-04-03T03:40:37;95504.91;;;5.34;55.09
77871;BME280;67067;46.850;7.578;2023-04-03T03:41:39;95497.19;;;5.45;54.95
77871;BME280;67067;46.850;7.578;2023-04-03T03:42:41;95500.00;;;5.51;54.89
77871;BME280;67067;46.850;7.578;2023-04-03T03:43:45;95501.28;;;5.35;54.99
77871;BME280;67067;46.850;7.578;2023-04-03T03:44:48;95501.06;;;5.43;55.09
77871;BME280;67067;46.850;7.578;2023-04-03T03:45:51;95498.47;;;5.36;54.97
77871;BME280;67067;46.850;7.578;2023-04-03T03:46:53;95503.03;;;5.48;55.05
77871;BME280;67067;46.850;7.578;2023-04-03T03:47:55;95501.63;;;5.52;54.93
77871;BME280;67067;46.850;7.578;2023-04-03T03:48:57;95507.25;;;5.55;55.08
77871;BME280;67067;46.850;7.578;2023-04-03T03:49:59;95506.00;;;5.58;55.10
77871;BME280;67067;46.850;7.578;2023-04-03T03:51:00;95503.97;;;5.60;54.69
77871;BME280;67067;46.850;7.578;2023-04-03T03:52:05;95499.97;;;5.57;54.81
77871;BME280;67067;46.850;7.578;2023-04-03T03:53:08;95505.00;;;5.59;54.90
77871;BME280;67067;46.850;7.578;2023-04-03T03:54:09;95502.59;;;5.57;54.88
77871;BME280;67067;46.850;7.578;2023-04-03T03:55:12;95507.25;;;5.55;54.98
77871;BME280;67067;46.850;7.578;2023-04-03T03:56:14;95510.91;;;5.54;54.78
77871;BME280;67067;46.850;7.578;2023-04-03T03:57:16;95503.84;;;5.48;54.81
77871;BME280;67067;46.850;7.578;2023-04-03T03:58:18;95507.13;;;5.37;54.96
77871;BME280;67067;46.850;7.578;2023-04-03T03:59:19;95504.88;;;5.47;54.93
77871;BME280;67067;46.850;7.578;2023-04-03T04:00:24;95500.81;;;5.44;55.18
77871;BME280;67067;46.850;7.578;2023-04-03T04:01:29;95503.44;;;5.51;54.93
77871;BME280;67067;46.850;7.578;2023-04-03T04:02:31;95503.25;;;5.46;54.95
77871;BME280;67067;46.850;7.578;2023-04-03T04:03:34;95507.91;;;5.44;55.33
77871;BME280;67067;46.850;7.578;2023-04-03T04:04:36;95508.50;;;5.46;55.25
77871;BME280;67067;46.850;7.578;2023-04-03T04:05:43;95513.75;;;5.46;55.42
77871;BME280;67067;46.850;7.578;2023-04-03T04:06:48;95506.16;;;5.31;55.14
77871;BME280;67067;46.850;7.578;2023-04-03T04:07:49;95509.63;;;5.25;55.22
77871;BME280;67067;46.850;7.578;2023-04-03T04:08:52;95505.59;;;5.22;55.11
77871;BME280;67067;46.850;7.578;2023-04-03T04:09:56;95504.03;;;5.14;55.62
77871;BME280;67067;46.850;7.578;2023-04-03T04:10:58;95506.25;;;5.18;55.36
77871;BME280;67067;46.850;7.578;2023-04-03T04:12:00;95504.41;;;5.18;55.24
77871;BME280;67067;46.850;7.578;2023-04-03T04:13:03;95501.78;;;5.18;55.41
77871;BME280;67067;46.850;7.578;2023-04-03T04:14:05;95507.88;;;5.12;55.67
77871;BME280;67067;46.850;7.578;2023-04-03T04:15:08;95508.03;;;5.17;55.64
77871;BME280;67067;46.850;7.578;2023-04-03T04:16:10;95502.97;;;5.22;55.36
77871;BME280;67067;46.850;7.578;2023-04-03T04:17:13;95503.38;;;5.19;55.08
77871;BME280;67067;46.850;7.578;2023-04-03T04:18:16;95500.59;;;5.14;55.20
77871;BME280;67067;46.850;7.578;2023-04-03T04:19:21;95508.47;;;5.14;55.01
77871;BME280;67067;46.850;7.578;2023-04-03T04:20:23;95512.69;;;5.15;54.80
77871;BME280;67067;46.850;7.578;2023-04-03T04:21:25;95517.19;;;5.01;55.42
77871;BME280;67067;46.850;7.578;2023-04-03T04:22:28;95518.78;;;5.09;55.02
77871;BME280;67067;46.850;7.578;2023-04-03T04:23:29;95514.31;;;5.09;54.81
77871;BME280;67067;46.850;7.578;2023-04-03T04:24:33;95522.25;;;5.03;55.01
77871;BME280;67067;46.850;7.578;2023-04-03T04:25:36;95521.66;;;4.94;55.03
77871;BME280;67067;46.850;7.578;2023-04-03T04:26:40;95522.25;;;4.96;54.93
77871;BME280;67067;46.850;7.578;2023-04-03T04:27:44;95524.69;;;4.97;54.52
77871;BME280;67067;46.850;7.578;2023-04-03T04:28:48;95519.69;;;4.89;54.68
77871;BME280;67067;46.850;7.578;2023-04-03T04:29:51;95521.25;;;4.97;54.70
77871;BME280;67067;46.850;7.578;2023-04-03T04:31:26;95522.91;;;4.91;54.52
77871;BME280;67067;46.850;7.578;2023-04-03T04:32:28;95521.47;;;4.95;54.08
77871;BME280;67067;46.850;7.578;2023-04-03T04:33:30;95521.66;;;5.00;53.82
77871;BME280;67067;46.850;7.578;2023-04-03T04:34:34;95523.25;;;5.01;53.93
77871;BME280;67067;46.850;7.578;2023-04-03T04:35:37;95520.63;;;5.01;54.33
77871;BME280;67067;46.850;7.578;2023-04-03T04:36:39;95512.53;;;5.03;54.17
77871;BME280;67067;46.850;7.578;2023-04-03T04:37:44;95520.19;;;5.11;54.40
77871;BME280;67067;46.850;7.578;2023-04-03T04:38:46;95521.59;;;5.14;53.97
77871;BME280;67067;46.850;7.578;2023-04-03T04:39:48;95515.75;;;5.12;54.43
77871;BME280;67067;46.850;7.578;2023-04-03T04:40:50;95520.81;;;5.07;54.37
77871;BME280;67067;46.850;7.578;2023-04-03T04:41:52;95519.22;;;5.06;54.75
77871;BME280;67067;46.850;7.578;2023-04-03T04:42:54;95507.34;;;4.96;54.78
77871;BME280;67067;46.850;7.578;2023-04-03T04:43:56;95516.81;;;4.97;54.49
77871;BME280;67067;46.850;7.578;2023-04-03T04:44:59;95519.88;;;4.94;54.57
77871;BME280;67067;46.850;7.578;2023-04-03T04:46:04;95522.09;;;4.91;54.48
77871;BME280;67067;46.850;7.578;2023-04-03T04:47:10;95517.31;;;4.81;55.01
77871;BME280;67067;46.850;7.578;2023-04-03T04:48:11;95510.88;;;4.63;55.14
77871;BME280;67067;46.850;7.578;2023-04-03T04:49:13;95514.50;;;4.69;55.18
77871;BME280;67067;46.850;7.578;2023-04-03T04:50:15;95522.00;;;4.59;55.24
77871;BME280;67067;46.850;7.578;2023-04-03T04:51:18;95517.50;;;4.72;55.34
77871;BME280;67067;46.850;7.578;2023-04-03T04:52:20;95520.13;;;4.72;55.14
77871;BME280;67067;46.850;7.578;2023-04-03T04:53:22;95523.75;;;4.71;54.90
77871;BME280;67067;46.850;7.578;2023-04-03T04:54:26;95525.78;;;4.69;54.70
77871;BME280;67067;46.850;7.578;2023-04-03T04:55:30;95524.78;;;4.70;54.34
77871;BME280;67067;46.850;7.578;2023-04-03T04:56:32;95531.44;;;4.66;54.10
77871;BME280;67067;46.850;7.578;2023-04-03T04:57:34;95531.63;;;4.71;54.12
77871;BME280;67067;46.850;7.578;2023-04-03T04:58:37;95532.88;;;4.69;53.91
77871;BME280;67067;46.850;7.578;2023-04-03T04:59:39;95531.06;;;4.63;53.46
77871;BME280;67067;46.850;7.578;2023-04-03T05:00:41;95534.88;;;4.67;53.73
77871;BME280;67067;46.850;7.578;2023-04-03T05:01:46;95529.47;;;4.62;53.93
77871;BME280;67067;46.850;7.578;2023-04-03T05:02:50;95535.06;;;4.65;53.92
77871;BME280;67067;46.850;7.578;2023-04-03T05:03:53;95531.25;;;4.68;54.02
77871;BME280;67067;46.850;7.578;2023-04-03T05:04:58;95527.41;;;4.70;53.70
77871;BME280;67067;46.850;7.578;2023-04-03T05:06:03;95535.06;;;4.65;53.20
77871;BME280;67067;46.850;7.578;2023-04-03T05:07:07;95538.28;;;4.67;53.31
77871;BME280;67067;46.850;7.578;2023-04-03T05:08:12;95535.06;;;4.65;52.95
77871;BME280;67067;46.850;7.578;2023-04-03T05:09:17;95541.94;;;4.66;53.25
77871;BME280;67067;46.850;7.578;2023-04-03T05:10:20;95540.31;;;4.65;52.92
77871;BME280;67067;46.850;7.578;2023-04-03T05:11:22;95544.22;;;4.49;53.51
77871;BME280;67067;46.850;7.578;2023-04-03T05:12:26;95541.56;;;4.56;53.57
77871;BME280;67067;46.850;7.578;2023-04-03T05:13:35;95547.59;;;4.63;53.49
77871;BME280;67067;46.850;7.578;2023-04-03T05:14:37;95547.59;;;4.63;53.88
77871;BME280;67067;46.850;7.578;2023-04-03T05:15:41;95552.03;;;4.63;53.88
77871;BME280;67067;46.850;7.578;2023-04-03T05:16:46;95540.72;;;4.62;53.85
77871;BME280;67067;46.850;7.578;2023-04-03T05:17:53;95538.72;;;4.64;54.21
77871;BME280;67067;46.850;7.578;2023-04-03T05:18:55;95547.59;;;4.63;54.14
77871;BME280;67067;46.850;7.578;2023-04-03T05:20:00;95544.38;;;4.61;53.98
77871;BME280;67067;46.850;7.578;2023-04-03T05:21:03;95539.94;;;4.62;53.79
77871;BME280;67067;46.850;7.578;2023-04-03T05:22:04;95542.75;;;4.60;54.18
77871;BME280;67067;46.850;7.578;2023-04-03T05:23:06;95541.38;;;4.51;54.26
77871;BME280;67067;46.850;7.578;2023-04-03T05:24:09;95545.78;;;4.57;54.47
77871;BME280;67067;46.850;7.578;2023-04-03T05:25:17;95541.13;;;4.66;54.21
77871;BME280;67067;46.850;7.578;2023-04-03T05:26:19;95549.19;;;4.64;54.15
77871;BME280;67067;46.850;7.578;2023-04-03T05:27:24;95548.19;;;4.65;54.30
77871;BME280;67067;46.850;7.578;2023-04-03T05:28:28;95548.00;;;4.60;54.24
77871;BME280;67067;46.850;7.578;2023-04-03T05:29:30;95548.22;;;4.59;54.64
77871;BME280;67067;46.850;7.578;2023-04-03T05:30:33;95544.00;;;4.57;54.56
77871;BME280;67067;46.850;7.578;2023-04-03T05:31:36;95548.59;;;4.62;54.68
77871;BME280;67067;46.850;7.578;2023-04-03T05:32:41;95544.13;;;4.69;54.13
77871;BME280;67067;46.850;7.578;2023-04-03T05:34:07;95539.91;;;4.68;54.47
77871;BME280;67067;46.850;7.578;2023-04-03T05:35:11;95547.59;;;4.70;54.37
77871;BME280;67067;46.850;7.578;2023-04-03T05:36:14;95545.75;;;4.70;54.17
77871;BME280;67067;46.850;7.578;2023-04-03T05:37:19;95548.97;;;4.72;53.97
77871;BME280;67067;46.850;7.578;2023-04-03T05:38:22;95545.94;;;4.76;54.02
77871;BME280;67067;46.850;7.578;2023-04-03T05:39:25;95545.56;;;4.79;53.82
77871;BME280;67067;46.850;7.578;2023-04-03T05:40:27;95542.53;;;4.68;53.77